Time;durP1;ratioP1;P1;durP2;ratioP2;P2;SDS_P1;SDS_P2;PMS_P1;PMS_P2;Temp;Humidity;BMP_temperature;BMP_pressure;BME280_temperature;BME280_humidity;BME280_pressure;Samples;Min_cycle;Max_cycle;Signal;HPM_P1;HPM_P2
2022/04/29 00:00:43;;;;;;;7.22;4.30;;;;;;;7.93;52.91;102988.09;5041119;28;20028;-46
2022/04/29 00:03:11;;;;;;;6.80;3.75;;;;;;;7.90;53.05;102983.13;5040699;28;20154;-44
2022/04/29 00:05:39;;;;;;;5.65;4.30;;;;;;;7.84;52.99;102978.47;5044944;28;20511;-46
2022/04/29 00:08:06;;;;;;;8.10;4.45;;;;;;;7.78;53.13;102981.84;5041313;28;20037;-43
2022/04/29 00:10:32;;;;;;;6.68;4.40;;;;;;;7.74;53.24;102980.53;5040332;28;20457;-45
2022/04/29 00:13:01;;;;;;;6.25;4.43;;;;;;;7.69;53.61;102975.69;5037812;28;20032;-47
2022/04/29 00:15:28;;;;;;;5.80;4.43;;;;;;;7.64;53.70;102977.25;5034999;28;20118;-44
2022/04/29 00:17:55;;;;;;;5.88;4.28;;;;;;;7.58;53.38;102979.59;5043484;28;20035;-46
2022/04/29 00:20:21;;;;;;;6.88;4.63;;;;;;;7.56;53.43;102975.47;5041089;28;20102;-45
2022/04/29 00:22:46;;;;;;;7.80;4.57;;;;;;;7.53;53.27;102981.13;5040358;28;20119;-44
2022/04/29 00:25:12;;;;;;;7.65;4.20;;;;;;;7.47;53.51;102979.97;5037860;28;20029;-45
2022/04/29 00:27:40;;;;;;;7.75;4.70;;;;;;;7.43;53.19;102976.00;5035266;28;20094;-46
2022/04/29 00:30:07;;;;;;;6.32;4.68;;;;;;;7.36;52.98;102966.19;5043973;28;20028;-47
2022/04/29 00:32:33;;;;;;;7.85;4.40;;;;;;;7.31;52.87;102972.03;5040704;28;20074;-45
2022/04/29 00:34:59;;;;;;;7.05;4.45;;;;;;;7.27;53.07;102965.38;5049572;28;20024;-44
2022/04/29 00:37:25;;;;;;;7.57;4.22;;;;;;;7.22;53.52;102973.91;5043527;28;20074;-44
2022/04/29 00:39:50;;;;;;;5.50;4.05;;;;;;;7.17;53.57;102965.56;5043112;28;20116;-47
2022/04/29 00:42:18;;;;;;;6.43;4.68;;;;;;;7.14;53.58;102968.59;5042940;28;20118;-46
2022/04/29 00:44:45;;;;;;;9.23;4.72;;;;;;;7.09;53.56;102962.13;5048332;28;20017;-46
2022/04/29 00:47:13;;;;;;;6.65;4.80;;;;;;;7.00;53.65;102965.78;5044676;28;20072;-49
2022/04/29 00:49:39;;;;;;;6.63;4.60;;;;;;;6.95;53.64;102959.13;5042717;28;20036;-48
2022/04/29 00:52:07;;;;;;;9.73;4.80;;;;;;;6.90;54.00;102961.50;5038457;28;20277;-46
2022/04/29 00:54:38;;;;;;;8.40;5.00;;;;;;;6.83;54.31;102963.19;5045466;28;20128;-47
2022/04/29 00:57:10;;;;;;;10.77;5.00;;;;;;;6.73;55.07;102957.19;5043971;28;21879;-49
2022/04/29 00:59:51;;;;;;;8.30;5.22;;;;;;;6.66;54.74;102954.38;5041440;28;20032;-47
2022/04/29 01:02:16;;;;;;;9.55;4.72;;;;;;;6.66;54.76;102953.53;5041126;28;20031;-46
2022/04/29 01:05:02;;;;;;;6.65;4.78;;;;;;;6.61;54.96;102953.19;5047034;28;20452;-47
2022/04/29 01:07:28;;;;;;;6.13;4.60;;;;;;;6.59;54.43;102956.03;5042512;28;20033;-48
2022/04/29 01:09:54;;;;;;;10.73;5.22;;;;;;;6.57;54.75;102962.53;5043826;28;20474;-46
2022/04/29 01:12:20;;;;;;;11.18;4.80;;;;;;;6.49;54.68;102962.53;5047579;28;20025;-46
2022/04/29 01:14:46;;;;;;;9.68;4.60;;;;;;;6.42;54.80;102957.03;5043818;28;20103;-47
2022/04/29 01:17:12;;;;;;;8.85;4.45;;;;;;;6.36;54.95;102952.38;5041796;28;20455;-46
2022/04/29 01:19:38;;;;;;;9.18;5.05;;;;;;;6.32;55.22;102956.38;5045390;28;20030;-47
2022/04/29 01:22:04;;;;;;;8.13;4.72;;;;;;;6.26;55.32;102954.38;5049276;28;20028;-49
2022/04/29 01:24:30;;;;;;;6.95;4.40;;;;;;;6.22;55.23;102959.19;5042255;28;20391;-45
2022/04/29 01:26:55;;;;;;;9.30;4.60;;;;;;;6.18;55.37;102951.72;5045200;28;20402;-46
2022/04/29 01:29:22;;;;;;;7.68;4.68;;;;;;;6.12;55.55;102953.22;5040302;28;20047;-46
2022/04/29 01:31:49;;;;;;;7.97;5.13;;;;;;;6.04;55.57;102959.34;5043524;28;20028;-47
2022/04/29 01:34:15;;;;;;;6.63;5.00;;;;;;;6.00;55.56;102952.69;5042325;28;20025;-47
2022/04/29 01:36:40;;;;;;;8.23;4.82;;;;;;;5.96;56.04;102958.50;5039905;28;20039;-48
2022/04/29 01:39:06;;;;;;;7.80;5.20;;;;;;;5.89;55.93;102968.09;5043630;28;20540;-46
2022/04/29 01:41:33;;;;;;;7.93;5.28;;;;;;;5.83;56.09;102958.94;5043820;28;20025;-46
2022/04/29 01:43:58;;;;;;;13.32;5.32;;;;;;;5.76;56.30;102958.75;5039552;28;20383;-46
2022/04/29 01:46:24;;;;;;;7.50;5.07;;;;;;;5.74;56.20;102965.22;5044705;28;20040;-46
2022/04/29 01:48:49;;;;;;;7.63;4.93;;;;;;;5.74;56.16;102959.91;5043493;28;20100;-46
2022/04/29 01:51:15;;;;;;;12.82;5.82;;;;;;;5.71;56.12;102963.72;5040626;28;20033;-48
2022/04/29 01:53:41;;;;;;;10.10;5.65;;;;;;;5.63;56.36;102955.72;5040281;28;20516;-47
2022/04/29 01:56:06;;;;;;;11.75;6.22;;;;;;;5.56;56.43;102954.69;5038674;28;20022;-45
2022/04/29 01:58:32;;;;;;;8.93;5.10;;;;;;;5.49;56.71;102952.84;5043399;28;20044;-45
2022/04/29 02:00:58;;;;;;;8.85;5.90;;;;;;;5.46;56.70;102954.84;5042712;28;21152;-46
2022/04/29 02:03:24;;;;;;;7.30;5.15;;;;;;;5.46;56.61;102954.84;5037809;28;20025;-46
2022/04/29 02:05:50;;;;;;;7.60;5.05;;;;;;;5.43;56.71;102956.97;5037250;28;20203;-45
2022/04/29 02:08:16;;;;;;;9.43;5.25;;;;;;;5.41;56.76;102949.16;5045464;28;20643;-46
2022/04/29 02:10:41;;;;;;;10.93;5.50;;;;;;;5.38;56.86;102938.00;5043955;28;20021;-47
2022/04/29 02:13:07;;;;;;;10.15;5.47;;;;;;;5.32;56.87;102939.47;5040729;28;20440;-47
2022/04/29 02:15:32;;;;;;;9.55;5.55;;;;;;;5.32;56.45;102943.97;5042526;28;20450;-47
2022/04/29 02:17:58;;;;;;;9.00;5.13;;;;;;;5.29;56.66;102946.94;5036329;28;20032;-46
2022/04/29 02:20:24;;;;;;;9.27;5.57;;;;;;;5.29;56.86;102952.25;5038166;28;20035;-46
2022/04/29 02:22:50;;;;;;;10.35;5.80;;;;;;;5.26;56.84;102950.75;5041561;28;20323;-46
2022/04/29 02:25:16;;;;;;;7.40;4.75;;;;;;;5.24;57.05;102952.75;5035275;28;20108;-46
2022/04/29 02:27:42;;;;;;;10.63;5.32;;;;;;;5.22;56.78;102948.59;5042497;28;20029;-46
2022/04/29 02:30:08;;;;;;;11.73;5.82;;;;;;;5.20;56.78;102947.88;5037547;28;20032;-46
2022/04/29 02:32:33;;;;;;;8.95;5.45;;;;;;;5.16;56.90;102948.22;5039442;28;20025;-46
2022/04/29 02:35:00;;;;;;;11.35;5.53;;;;;;;5.12;56.97;102941.56;5035019;28;20021;-46
2022/04/29 02:37:27;;;;;;;14.23;6.00;;;;;;;5.10;57.01;102948.84;5037965;28;20033;-46
2022/04/29 02:39:53;;;;;;;13.05;6.25;;;;;;;5.08;56.92;102942.88;5043411;28;20056;-46
2022/04/29 02:42:19;;;;;;;10.63;6.07;;;;;;;5.05;56.89;102932.56;5037147;28;20086;-46
2022/04/29 02:44:44;;;;;;;9.60;5.95;;;;;;;5.03;57.19;102934.53;5036235;28;20393;-47
2022/04/29 02:47:10;;;;;;;12.63;6.10;;;;;;;4.99;57.19;102938.47;5036895;28;20056;-46
2022/04/29 02:49:41;;;;;;;10.18;5.57;;;;;;;4.94;57.23;102932.81;5045207;28;20055;-46
2022/04/29 02:52:09;;;;;;;9.30;6.10;;;;;;;4.92;57.27;102937.47;5036144;28;20478;-45
2022/04/29 02:54:35;;;;;;;8.82;5.57;;;;;;;4.89;57.15;102934.28;5037886;28;20020;-47
2022/04/29 02:57:00;;;;;;;13.15;5.55;;;;;;;4.86;57.61;102940.75;5024020;28;20024;-46
2022/04/29 02:59:26;;;;;;;11.07;5.32;;;;;;;4.84;57.32;102942.69;5041873;28;20032;-46
2022/04/29 03:01:52;;;;;;;12.18;5.90;;;;;;;4.83;57.56;102944.53;5047372;28;20497;-46
2022/04/29 03:04:18;;;;;;;6.63;4.90;;;;;;;4.80;57.51;102933.38;5040477;28;20486;-46
2022/04/29 03:06:44;;;;;;;8.23;5.35;;;;;;;4.77;57.50;102933.72;5042423;28;20171;-46
2022/04/29 03:09:10;;;;;;;13.00;5.38;;;;;;;4.75;57.32;102930.38;5047773;28;20092;-47
2022/04/29 03:11:37;;;;;;;7.75;5.65;;;;;;;4.72;57.13;102930.69;5048782;28;20086;-44
2022/04/29 03:14:03;;;;;;;8.48;5.45;;;;;;;4.69;57.40;102931.00;5047766;28;20021;-47
2022/04/29 03:16:28;;;;;;;7.47;5.32;;;;;;;4.66;57.42;102936.59;5039227;28;20497;-46
2022/04/29 03:18:54;;;;;;;8.95;5.50;;;;;;;4.64;57.29;102938.59;5038804;28;20091;-47
2022/04/29 03:21:20;;;;;;;8.32;5.18;;;;;;;4.60;57.43;102942.56;5041566;28;20687;-46
2022/04/29 03:23:47;;;;;;;7.93;5.22;;;;;;;4.55;57.60;102943.84;5037018;28;20422;-46
2022/04/29 03:26:12;;;;;;;10.32;5.50;;;;;;;4.53;57.61;102937.88;5040979;28;20065;-46
2022/04/29 03:28:38;;;;;;;10.80;5.68;;;;;;;4.50;57.65;102938.19;5036682;28;20029;-46
2022/04/29 03:31:04;;;;;;;13.93;5.30;;;;;;;4.44;57.78;102943.25;5038709;28;20028;-45
2022/04/29 03:33:30;;;;;;;10.38;5.72;;;;;;;4.41;57.69;102939.09;5038251;28;20036;-45
2022/04/29 03:35:55;;;;;;;11.30;5.15;;;;;;;4.39;57.75;102942.91;5039178;28;20029;-46
2022/04/29 03:38:21;;;;;;;12.27;5.90;;;;;;;4.36;57.90;102935.25;5048742;28;20099;-45
2022/04/29 03:40:47;;;;;;;12.57;5.15;;;;;;;4.34;57.95;102938.06;5040495;28;20028;-46
2022/04/29 03:43:12;;;;;;;12.52;5.55;;;;;;;4.31;58.14;102940.16;5044331;28;20036;-45
2022/04/29 03:45:38;;;;;;;9.75;5.03;;;;;;;4.26;58.19;102935.31;5039827;28;20028;-47
2022/04/29 03:48:04;;;;;;;8.10;5.22;;;;;;;4.24;58.14;102937.28;5033917;28;20036;-46
2022/04/29 03:50:31;;;;;;;6.85;4.82;;;;;;;4.22;58.46;102940.09;5038613;28;20017;-45
2022/04/29 03:52:59;;;;;;;9.05;5.30;;;;;;;4.23;58.34;102947.06;5042866;28;20510;-47
2022/04/29 03:55:27;;;;;;;8.38;4.97;;;;;;;4.20;58.41;102933.28;5038601;28;20387;-47
2022/04/29 03:57:53;;;;;;;8.18;5.40;;;;;;;4.19;58.14;102931.63;5041494;28;20111;-46
2022/04/29 04:00:20;;;;;;;7.43;4.93;;;;;;;4.20;58.29;102930.63;5040340;28;20267;-46
2022/04/29 04:02:46;;;;;;;8.05;4.95;;;;;;;4.17;58.51;102923.81;5040232;28;20470;-47
2022/04/29 04:05:12;;;;;;;8.88;5.28;;;;;;;4.18;58.69;102922.00;5033990;28;20067;-46
2022/04/29 04:07:38;;;;;;;7.57;4.40;;;;;;;4.17;58.66;102918.50;5042811;28;20035;-46
2022/04/29 04:10:05;;;;;;;7.68;4.70;;;;;;;4.18;58.58;102919.34;5062894;22;20040;-47
2022/04/29 04:13:00;;;;;;;7.97;5.25;;;;;;;4.10;58.83;102919.25;5045139;28;20394;-47
2022/04/29 04:15:26;;;;;;;5.85;4.03;;;;;;;4.17;58.64;102918.50;5025274;28;20049;-47
2022/04/29 04:17:51;;;;;;;6.93;4.55;;;;;;;4.16;58.58;102932.75;5052158;28;20070;-46
2022/04/29 04:20:17;;;;;;;9.05;4.80;;;;;;;4.18;58.85;102922.81;5042379;28;20033;-47
2022/04/29 04:22:45;;;;;;;8.00;5.38;;;;;;;4.19;59.08;102929.78;5049826;28;20033;-48
2022/04/29 04:25:13;;;;;;;8.98;5.30;;;;;;;4.21;59.05;102926.97;5035806;28;20542;-46
2022/04/29 04:27:39;;;;;;;10.82;5.57;;;;;;;4.24;58.82;102931.97;5048429;28;20032;-46
2022/04/29 04:30:06;;;;;;;13.00;5.72;;;;;;;4.27;59.39;102936.16;5043977;28;20032;-46
2022/04/29 04:32:37;;;;;;;10.07;4.85;;;;;;;4.29;59.55;102931.50;5047036;28;20285;-47
2022/04/29 04:35:03;;;;;;;6.30;4.70;;;;;;;4.32;59.67;102941.84;5037521;28;20036;-46
2022/04/29 04:37:31;;;;;;;9.13;5.78;;;;;;;4.32;60.06;102934.72;5038272;28;20509;-47
2022/04/29 04:39:59;;;;;;;10.55;5.53;;;;;;;4.36;59.97;102932.59;5047542;28;20037;-47
2022/04/29 04:42:25;;;;;;;11.93;6.47;;;;;;;4.39;60.44;102935.75;5040953;28;20033;-46
2022/04/29 04:44:52;;;;;;;10.68;6.93;;;;;;;4.45;60.86;102935.13;5038433;28;20024;-49
2022/04/29 04:47:18;;;;;;;13.05;6.55;;;;;;;4.48;61.30;102937.47;5040205;28;20182;-47
2022/04/29 04:49:43;;;;;;;13.70;6.90;;;;;;;4.52;61.72;102938.84;5036917;28;21041;-47
2022/04/29 04:52:09;;;;;;;13.75;6.47;;;;;;;4.60;62.00;102942.56;5036883;28;20052;-46
2022/04/29 04:54:36;;;;;;;11.27;6.72;;;;;;;4.66;62.07;102945.41;5043341;28;20025;-47
2022/04/29 04:57:02;;;;;;;10.02;6.70;;;;;;;4.72;62.34;102947.47;5039978;28;20237;-48
2022/04/29 04:59:27;;;;;;;14.07;7.28;;;;;;;4.84;62.71;102955.97;5039634;28;20243;-46
2022/04/29 05:01:53;;;;;;;11.43;7.07;;;;;;;4.92;62.67;102947.25;5039780;28;20289;-46
2022/04/29 05:04:19;;;;;;;19.73;7.75;;;;;;;4.98;62.84;102947.44;5044068;28;20397;-46
2022/04/29 05:06:45;;;;;;;22.25;8.35;;;;;;;5.07;62.86;102951.84;5042443;28;20040;-47
2022/04/29 05:09:11;;;;;;;19.65;7.78;;;;;;;5.18;63.07;102952.53;5040287;28;20029;-46
2022/04/29 05:11:37;;;;;;;13.02;8.38;;;;;;;5.27;62.92;102959.56;5042994;28;20035;-47
2022/04/29 05:14:02;;;;;;;17.90;8.23;;;;;;;5.37;63.24;102952.28;5036044;28;20481;-48
2022/04/29 05:16:28;;;;;;;17.50;8.52;;;;;;;5.47;63.26;102955.66;5040458;28;20493;-46
2022/04/29 05:18:53;;;;;;;19.88;8.68;;;;;;;5.57;63.37;102951.06;5042913;28;20045;-47
2022/04/29 05:21:19;;;;;;;17.65;8.48;;;;;;;5.65;63.42;102953.72;5040148;28;20027;-47
2022/04/29 05:23:45;;;;;;;16.23;7.85;;;;;;;5.77;63.99;102962.25;5040257;28;20571;-48
2022/04/29 05:26:10;;;;;;;17.65;8.77;;;;;;;5.88;64.46;102961.09;5040411;28;20108;-47
2022/04/29 05:28:36;;;;;;;20.42;8.55;;;;;;;5.94;64.43;102956.00;5039448;28;20572;-46
2022/04/29 05:31:03;;;;;;;19.70;9.63;;;;;;;6.04;64.86;102964.66;5043873;28;20033;-46
2022/04/29 05:33:33;;;;;;;12.63;8.35;;;;;;;6.10;65.56;102960.50;5044767;28;20502;-48
2022/04/29 05:36:00;;;;;;;12.70;7.65;;;;;;;6.20;65.23;102960.34;5042523;28;20115;-46
2022/04/29 05:42:14;;;;;;;13.65;7.97;;;;;;;6.29;65.41;102962.88;5041507;28;20072;-46
2022/04/29 05:43:59;;;;;;;11.70;7.35;;;;;;;6.59;65.20;102960.53;5042807;28;20049;-46
2022/04/29 05:46:25;;;;;;;12.73;6.93;;;;;;;6.72;65.32;102960.84;5038064;28;20711;-47
2022/04/29 05:48:50;;;;;;;12.20;7.20;;;;;;;6.84;65.19;102962.19;5043109;28;20488;-47
2022/04/29 05:51:16;;;;;;;12.10;6.75;;;;;;;6.96;64.86;102966.13;5038249;28;20095;-46
2022/04/29 05:53:41;;;;;;;13.27;6.97;;;;;;;7.05;64.54;102966.13;5043168;28;20043;-46
2022/04/29 05:56:07;;;;;;;15.45;7.47;;;;;;;7.15;64.70;102966.75;5035838;28;20681;-46
2022/04/29 05:58:32;;;;;;;14.88;6.78;;;;;;;7.27;64.30;102970.72;5039791;28;20119;-47
2022/04/29 06:00:58;;;;;;;11.63;6.22;;;;;;;7.39;64.66;102966.69;5039440;28;21310;-48
2022/04/29 06:03:26;;;;;;;13.05;7.13;;;;;;;7.49;64.33;102963.78;5038294;28;20104;-47
2022/04/29 06:05:52;;;;;;;15.40;7.25;;;;;;;7.57;64.54;102961.94;5042376;28;20588;-48
2022/04/29 06:08:17;;;;;;;9.88;6.28;;;;;;;7.66;64.62;102962.72;5042550;28;20033;-47
2022/04/29 06:10:43;;;;;;;11.18;6.35;;;;;;;7.77;64.73;102964.16;5037075;28;20021;-48
2022/04/29 06:13:09;;;;;;;11.90;6.07;;;;;;;7.84;64.88;102967.78;5034344;28;20053;-49
2022/04/29 06:15:35;;;;;;;13.23;6.00;;;;;;;7.94;64.55;102968.41;5037113;28;20087;-47
2022/04/29 06:18:01;;;;;;;15.90;6.53;;;;;;;8.06;64.17;102964.31;5037010;28;20230;-46
2022/04/29 06:20:27;;;;;;;12.23;6.47;;;;;;;8.19;64.06;102971.75;5034366;28;20028;-48
2022/04/29 06:22:52;;;;;;;12.48;6.25;;;;;;;8.31;63.66;102967.66;5042253;28;20029;-48
2022/04/29 06:25:20;;;;;;;14.25;6.18;;;;;;;8.45;63.26;102966.06;5045020;28;20021;-47
2022/04/29 06:27:46;;;;;;;12.20;5.70;;;;;;;8.56;63.33;102962.94;5042065;28;20068;-46
2022/04/29 06:30:12;;;;;;;10.77;5.63;;;;;;;8.65;62.82;102961.88;5047848;28;20028;-47
2022/04/29 06:32:38;;;;;;;12.77;6.10;;;;;;;8.73;62.47;102969.81;5048438;28;20025;-46
2022/04/29 06:35:06;;;;;;;9.90;5.10;;;;;;;8.81;62.75;102962.75;5045518;28;20017;-48
2022/04/29 06:37:32;;;;;;;12.98;5.18;;;;;;;8.89;62.29;102968.00;5041181;28;20029;-47
2022/04/29 06:39:58;;;;;;;10.45;5.38;;;;;;;8.96;62.45;102971.59;5041872;28;20517;-47
2022/04/29 06:42:24;;;;;;;14.93;5.75;;;;;;;9.03;61.84;102969.88;5044794;28;20029;-47
2022/04/29 06:44:49;;;;;;;10.98;5.00;;;;;;;9.09;61.94;102974.47;5044310;28;20116;-47
2022/04/29 06:47:15;;;;;;;14.02;5.30;;;;;;;9.14;61.98;102969.38;5045410;28;20036;-47
2022/04/29 06:49:40;;;;;;;11.23;4.85;;;;;;;9.24;61.55;102975.31;5044755;28;20486;-48
2022/04/29 06:52:06;;;;;;;14.02;5.07;;;;;;;9.34;61.44;102973.19;5038890;28;20040;-48
2022/04/29 06:54:32;;;;;;;20.23;5.57;;;;;;;9.42;60.93;102979.44;5040356;28;20029;-48
2022/04/29 06:56:57;;;;;;;14.95;5.25;;;;;;;9.52;60.69;102971.97;5040617;28;20025;-49
2022/04/29 06:59:23;;;;;;;11.48;4.45;;;;;;;9.61;60.39;102974.34;5055073;28;20036;-47
2022/04/29 07:01:48;;;;;;;17.60;5.13;;;;;;;9.72;60.30;102967.69;5051474;28;20414;-49
2022/04/29 07:04:14;;;;;;;14.75;5.53;;;;;;;9.82;60.06;102970.88;5043770;28;20111;-47
2022/04/29 07:06:39;;;;;;;15.60;4.05;;;;;;;9.94;59.82;102977.41;5042157;28;20029;-47
2022/04/29 07:09:05;;;;;;;7.97;4.30;;;;;;;10.03;59.60;102977.28;5042235;28;20703;-46
2022/04/29 07:11:31;;;;;;;8.32;3.95;;;;;;;10.11;59.16;102980.69;5039226;28;20036;-48
2022/04/29 07:13:57;;;;;;;9.35;4.10;;;;;;;10.21;58.75;102975.03;5043352;28;20033;-47
2022/04/29 07:16:23;;;;;;;11.20;3.90;;;;;;;10.29;58.40;102970.38;5049073;28;20028;-47
2022/04/29 07:18:49;;;;;;;21.10;4.57;;;;;;;10.45;58.26;102971.97;5041468;28;20028;-49
2022/04/29 07:21:14;;;;;;;12.05;4.40;;;;;;;10.63;58.42;102965.31;5037621;28;20056;-47
2022/04/29 07:23:40;;;;;;;14.65;4.50;;;;;;;10.83;58.03;102967.09;5044463;28;20212;-47
2022/04/29 07:26:06;;;;;;;5.97;3.67;;;;;;;11.03;57.77;102961.03;5040437;28;20060;-48
2022/04/29 07:28:31;;;;;;;10.45;4.50;;;;;;;11.25;57.33;102962.63;5043555;28;20453;-46
2022/04/29 07:30:57;;;;;;;9.30;3.92;;;;;;;11.44;56.83;102961.88;5038707;28;20471;-47
2022/04/29 07:33:23;;;;;;;10.02;3.47;;;;;;;11.64;56.71;102972.69;5038239;28;20450;-46
2022/04/29 07:44:02;;;;;;;6.60;2.92;;;;;;;12.35;54.32;102970.41;5042148;28;20043;-47
2022/04/29 07:46:28;;;;;;;9.10;2.90;;;;;;;12.51;53.63;102968.34;5045448;28;20451;-49
2022/04/29 07:48:54;;;;;;;10.50;3.00;;;;;;;12.65;53.16;102976.22;5047460;28;20025;-47
2022/04/29 07:51:19;;;;;;;9.40;2.42;;;;;;;12.80;53.07;102967.94;5049803;28;20024;-49
2022/04/29 07:53:45;;;;;;;11.20;2.75;;;;;;;12.96;52.67;102966.69;5043735;28;20021;-48
2022/04/29 07:56:10;;;;;;;11.43;3.35;;;;;;;13.12;52.13;102960.03;5053673;28;20016;-48
2022/04/29 07:58:36;;;;;;;6.10;2.20;;;;;;;13.27;51.65;102966.81;5050697;28;20037;-47
2022/04/29 08:01:04;;;;;;;5.50;2.70;;;;;;;13.48;51.42;102963.03;5053222;28;20029;-47
2022/04/29 08:03:29;;;;;;;12.50;2.88;;;;;;;13.63;50.90;102961.91;5042995;28;20029;-47
2022/04/29 08:05:55;;;;;;;6.65;2.55;;;;;;;13.83;50.57;102962.66;5047287;28;20398;-47
2022/04/29 08:08:21;;;;;;;5.85;2.63;;;;;;;14.00;50.04;102957.56;5045948;28;20029;-48
2022/04/29 08:10:47;;;;;;;7.68;2.33;;;;;;;14.15;49.31;102958.91;5040203;28;20028;-48
2022/04/29 08:13:12;;;;;;;8.10;2.45;;;;;;;14.31;49.15;102957.56;5051179;28;20028;-47
2022/04/29 08:15:38;;;;;;;6.25;2.50;;;;;;;14.47;48.68;102948.13;5045480;28;20021;-47
2022/04/29 08:18:05;;;;;;;8.57;2.30;;;;;;;14.64;48.29;102953.78;5045115;28;20028;-48
2022/04/29 08:20:31;;;;;;;10.82;2.58;;;;;;;14.79;48.26;102957.81;5040054;28;20063;-47
2022/04/29 08:22:57;;;;;;;6.40;1.90;;;;;;;14.87;47.16;102955.84;5045786;28;20052;-49
2022/04/29 08:25:22;;;;;;;4.85;2.33;;;;;;;14.93;46.96;102952.28;5041890;28;20033;-49
2022/04/29 08:27:50;;;;;;;10.00;2.83;;;;;;;15.02;46.63;102949.06;5050506;28;20044;-53
2022/04/29 08:30:16;;;;;;;5.30;2.45;;;;;;;15.15;46.76;102952.66;5047798;28;20021;-47
2022/04/29 08:32:46;;;;;;;4.97;1.88;;;;;;;15.29;46.36;102955.00;5050279;28;20045;-47
2022/04/29 08:35:13;;;;;;;8.80;2.15;;;;;;;15.43;46.48;102953.75;5042486;28;20013;-48
2022/04/29 08:37:40;;;;;;;7.20;2.22;;;;;;;15.54;46.52;102952.19;5049076;28;20434;-47
2022/04/29 08:40:07;;;;;;;5.68;1.80;;;;;;;15.61;46.44;102947.53;5048425;28;20678;-48
2022/04/29 08:42:40;;;;;;;11.50;2.22;;;;;;;15.69;45.89;102947.22;5043726;28;20116;-47
2022/04/29 08:45:14;;;;;;;4.78;1.88;;;;;;;15.83;45.40;102947.88;5048368;28;20021;-47
2022/04/29 08:47:42;;;;;;;3.35;1.75;;;;;;;15.95;44.46;102937.91;5043572;28;20071;-47
2022/04/29 08:50:13;;;;;;;6.07;1.88;;;;;;;16.09;44.41;102937.72;5048721;28;20120;-47
2022/04/29 08:52:39;;;;;;;7.05;2.03;;;;;;;16.29;44.33;102935.50;5045903;28;20051;-47
2022/04/29 09:00:41;;;;;;;5.03;1.30;;;;;;;16.86;42.44;102936.63;5047227;28;20113;-48
2022/04/29 09:03:16;;;;;;;4.20;1.85;;;;;;;16.94;41.51;102938.16;5045733;28;20036;-47
2022/04/29 09:05:43;;;;;;;8.73;1.70;;;;;;;17.08;41.48;102934.13;5047162;28;20024;-48
2022/04/29 09:08:12;;;;;;;5.43;1.25;;;;;;;17.16;40.40;102936.47;5050212;28;20028;-47
2022/04/29 09:10:51;;;;;;;4.53;1.50;;;;;;;17.18;39.37;102937.03;5046844;28;20032;-47
2022/04/29 09:13:19;;;;;;;5.90;1.30;;;;;;;17.32;39.55;102931.34;5048354;28;20115;-48
2022/04/29 09:15:49;;;;;;;6.90;1.60;;;;;;;17.44;39.32;102924.03;5047748;28;20040;-48
2022/04/29 09:18:47;;;;;;;4.18;1.35;;;;;;;17.61;38.45;102929.50;5051901;28;20021;-47
2022/04/29 09:21:24;;;;;;;5.15;1.30;;;;;;;17.84;38.97;102925.88;5046113;28;20604;-47
2022/04/29 09:23:55;;;;;;;5.10;1.50;;;;;;;17.93;38.44;102916.25;5055371;28;20545;-47
2022/04/29 09:26:28;;;;;;;5.70;1.58;;;;;;;17.96;38.30;102923.94;5051644;28;20015;-47
2022/04/29 09:29:08;;;;;;;7.07;1.30;;;;;;;18.00;38.09;102915.06;5044318;28;20028;-47
2022/04/29 09:31:54;;;;;;;5.32;1.50;;;;;;;18.04;37.63;102918.09;5050826;28;20037;-48
2022/04/29 09:34:21;;;;;;;4.88;1.88;;;;;;;18.19;38.27;102915.63;5045606;28;20024;-47
2022/04/29 09:36:47;;;;;;;6.47;1.25;;;;;;;18.34;38.50;102929.47;5045397;28;20051;-47
2022/04/29 09:39:30;;;;;;;4.45;1.20;;;;;;;18.47;37.61;102922.03;5041357;28;20182;-49
2022/04/29 09:42:05;;;;;;;3.88;1.00;;;;;;;18.55;37.62;102914.31;5052675;28;20070;-47
2022/04/29 09:44:36;;;;;;;4.72;1.25;;;;;;;18.60;36.66;102913.53;5053982;28;20025;-47
2022/04/29 09:47:13;;;;;;;8.13;1.73;;;;;;;18.65;36.47;102909.03;5039323;28;20163;-47
2022/04/29 09:49:40;;;;;;;7.40;1.40;;;;;;;18.77;36.74;102916.25;5047275;28;20230;-47
2022/04/29 09:52:06;;;;;;;4.20;1.35;;;;;;;18.78;37.01;102901.63;5047552;28;20385;-47
2022/04/29 09:54:37;;;;;;;4.80;1.40;;;;;;;18.89;36.22;102903.41;5044925;28;20117;-48
2022/04/29 09:57:10;;;;;;;6.45;1.67;;;;;;;18.93;35.82;102899.09;5042126;28;20053;-49
2022/04/29 09:59:51;;;;;;;5.40;1.30;;;;;;;19.02;35.92;102898.41;5046268;28;20148;-46
2022/04/29 10:02:27;;;;;;;7.13;1.55;;;;;;;19.02;35.39;102901.09;5046339;28;20028;-48
2022/04/29 10:04:54;;;;;;;4.88;1.40;;;;;;;19.02;35.61;102898.41;5039462;28;20078;-46
2022/04/29 10:07:22;;;;;;;5.38;1.10;;;;;;;19.10;35.97;102896.31;5049776;28;20036;-47
2022/04/29 10:09:50;;;;;;;6.72;1.60;;;;;;;19.24;36.09;102892.16;5046820;28;20029;-47
2022/04/29 10:12:18;;;;;;;5.60;1.35;;;;;;;19.25;35.72;102891.91;5050607;28;20378;-46
2022/04/29 10:14:46;;;;;;;4.45;1.00;;;;;;;19.27;35.34;102897.91;5041952;28;20165;-47
2022/04/29 10:22:53;;;;;;;5.47;1.58;;;;;;;19.58;35.34;102893.66;5046085;28;20043;-48
2022/04/29 10:25:25;;;;;;;8.13;1.65;;;;;;;19.66;35.02;102891.53;5046716;28;20054;-47
2022/04/29 10:27:52;;;;;;;5.60;1.20;;;;;;;19.76;35.39;102883.47;5046530;28;20094;-46
2022/04/29 10:30:33;;;;;;;5.75;1.33;;;;;;;19.74;34.42;102889.16;5046337;28;20497;-48
2022/04/29 10:33:08;;;;;;;5.65;1.67;;;;;;;19.79;34.79;102878.34;5038128;28;20432;-46
2022/04/29 10:35:43;;;;;;;6.75;1.55;;;;;;;19.93;35.04;102878.75;5047832;28;20031;-46
2022/04/29 10:38:34;;;;;;;4.72;1.60;;;;;;;19.96;34.57;102880.94;5040222;28;20040;-46
2022/04/29 10:41:10;;;;;;;6.10;1.73;;;;;;;20.02;33.76;102877.16;5044184;28;20037;-46
2022/04/29 10:43:38;;;;;;;6.10;1.48;;;;;;;19.99;34.12;102883.13;5040725;28;20508;-46
2022/04/29 10:46:03;;;;;;;7.30;1.65;;;;;;;20.06;34.68;102872.84;5037954;28;20056;-47
2022/04/29 10:48:39;;;;;;;7.13;1.45;;;;;;;20.22;34.66;102873.78;5042102;28;20056;-46
2022/04/29 10:51:16;;;;;;;6.00;1.70;;;;;;;20.30;33.86;102875.22;5039133;28;20091;-46
2022/04/29 10:53:43;;;;;;;4.93;1.30;;;;;;;20.32;34.06;102859.44;5039503;28;20083;-48
2022/04/29 10:56:30;;;;;;;3.72;1.23;;;;;;;20.29;32.22;102860.78;5042031;28;20021;-47
2022/04/29 10:59:15;;;;;;;3.17;1.48;;;;;;;20.33;33.71;102852.91;5044323;28;20029;-47
2022/04/29 11:01:49;;;;;;;5.00;1.67;;;;;;;20.48;33.41;102864.75;5036278;28;20021;-47
2022/04/29 11:04:15;;;;;;;5.03;1.10;;;;;;;20.46;33.80;102863.34;5037980;28;20032;-46
2022/04/29 11:06:45;;;;;;;4.93;1.35;;;;;;;20.44;33.75;102857.34;5043821;28;20049;-48
2022/04/29 11:09:30;;;;;;;5.10;1.25;;;;;;;20.45;32.98;102851.63;5041023;28;20108;-48
2022/04/29 11:11:59;;;;;;;4.20;1.20;;;;;;;20.47;33.11;102846.75;5047991;28;20255;-46
2022/04/29 11:14:24;;;;;;;5.07;1.25;;;;;;;20.58;33.22;102858.50;5043241;28;20110;-46
2022/04/29 11:16:56;;;;;;;4.10;1.10;;;;;;;20.78;33.16;102852.34;5042938;28;20398;-48
2022/04/29 11:19:28;;;;;;;3.75;1.15;;;;;;;20.92;33.58;102839.88;5037877;28;20052;-47
2022/04/29 11:24:51;;;;;;;3.97;1.17;;;;;;;21.31;33.84;102840.28;5038864;28;20052;-46
2022/04/29 11:27:27;;;;;;;6.32;1.52;;;;;;;21.44;33.36;102838.13;5040063;28;20123;-47
2022/04/29 11:29:56;;;;;;;4.07;1.13;;;;;;;21.56;33.05;102835.97;5042649;28;20031;-46
2022/04/29 11:32:26;;;;;;;3.90;1.20;;;;;;;21.70;32.86;102831.59;5038740;28;20025;-46
2022/04/29 11:34:57;;;;;;;5.00;1.52;;;;;;;21.78;32.25;102827.53;5043015;28;20066;-48
2022/04/29 11:37:30;;;;;;;4.28;1.10;;;;;;;21.78;31.89;102828.34;5043032;28;20025;-47
2022/04/29 11:39:56;;;;;;;6.93;0.90;;;;;;;21.86;32.11;102827.78;5044874;28;20090;-47
2022/04/29 11:42:22;;;;;;;5.97;1.10;;;;;;;21.96;32.06;102829.69;5044320;28;20056;-47
2022/04/29 11:44:51;;;;;;;3.55;1.20;;;;;;;22.07;31.43;102825.06;5045115;28;20157;-47
2022/04/29 11:47:23;;;;;;;4.25;1.13;;;;;;;22.09;30.94;102826.44;5039279;28;20106;-47
2022/04/29 11:49:49;;;;;;;5.80;1.73;;;;;;;22.20;31.34;102817.13;5039476;28;20031;-46
2022/04/29 11:52:22;;;;;;;6.55;1.58;;;;;;;22.32;31.07;102811.38;5043557;28;20021;-46
2022/04/29 11:54:59;;;;;;;2.75;1.00;;;;;;;22.49;31.33;102806.41;5038615;28;20028;-47